Time;durP1;ratioP1;P1;durP2;ratioP2;P2;SDS_P1;SDS_P2;PMS_P1;PMS_P2;Temp;Humidity;BMP_temperature;BMP_pressure;BME280_temperature;BME280_humidity;BME280_pressure;Samples;Min_cycle;Max_cycle;Signal;HPM_P1;HPM_P2
2024/01/28 00:00:59;;;;;;;20.23;6.18;;;;;;;-141.50;100.00;63355.56;4972097;28;20066;-77
2024/01/28 00:03:26;;;;;;;18.45;6.28;;;;;;;-141.50;100.00;63355.56;4983907;28;20047;-78
2024/01/28 00:05:54;;;;;;;21.85;6.78;;;;;;;-141.50;100.00;63355.56;4981492;28;20063;-79
2024/01/28 00:08:25;;;;;;;19.88;6.53;;;;;;;-141.50;100.00;63355.56;4994227;28;20541;-78
2024/01/28 00:10:54;;;;;;;22.30;6.47;;;;;;;-141.50;100.00;63355.56;4984166;28;20051;-78
2024/01/28 00:13:24;;;;;;;22.63;5.85;;;;;;;-141.50;100.00;63355.56;4961198;28;20429;-78
2024/01/28 00:15:54;;;;;;;25.95;6.53;;;;;;;-141.50;100.00;63355.56;4956194;28;20075;-79
2024/01/28 00:18:22;;;;;;;18.75;6.80;;;;;;;-141.50;100.00;63355.56;4986568;28;20054;-78
2024/01/28 00:20:49;;;;;;;22.48;6.90;;;;;;;-141.50;100.00;63355.56;4936711;28;20568;-80
2024/01/28 00:23:15;;;;;;;26.77;7.13;;;;;;;-141.50;100.00;63355.56;4933170;28;20055;-78
2024/01/28 00:25:42;;;;;;;24.52;6.97;;;;;;;-141.50;100.00;63355.56;4965424;28;20118;-77
2024/01/28 00:28:09;;;;;;;22.67;7.07;;;;;;;-141.50;100.00;63355.56;4968848;28;20066;-78
2024/01/28 00:30:36;;;;;;;20.92;7.13;;;;;;;-141.50;100.00;63355.56;4993608;28;20096;-78
2024/01/28 00:33:03;;;;;;;20.45;7.10;;;;;;;-141.50;100.00;63355.56;4961523;28;20059;-77
2024/01/28 00:35:30;;;;;;;17.02;6.00;;;;;;;-141.50;100.00;63355.56;4975056;28;20067;-78
2024/01/28 00:37:57;;;;;;;17.20;6.13;;;;;;;-141.50;100.00;63355.56;4971678;28;20055;-79
2024/01/28 00:40:24;;;;;;;18.08;5.68;;;;;;;-141.50;100.00;63355.56;4975788;28;20145;-78
2024/01/28 00:42:51;;;;;;;15.13;5.25;;;;;;;-141.50;100.00;63355.56;4983943;28;20076;-78
2024/01/28 00:45:18;;;;;;;11.82;4.72;;;;;;;-141.50;100.00;63355.56;4984057;28;20066;-78
2024/01/28 00:47:45;;;;;;;21.77;5.60;;;;;;;-141.50;100.00;63355.56;4988496;28;20047;-78
2024/01/28 00:50:13;;;;;;;17.35;5.70;;;;;;;-141.50;100.00;63355.56;4966209;28;20063;-78
2024/01/28 00:52:40;;;;;;;15.98;5.47;;;;;;;-141.50;100.00;63355.56;4966818;28;20134;-78
2024/01/28 00:55:08;;;;;;;17.85;6.68;;;;;;;-141.50;100.00;63355.56;4961501;28;20112;-78
2024/01/28 00:57:35;;;;;;;20.38;6.38;;;;;;;-141.50;100.00;63355.56;4955378;28;20039;-78
2024/01/28 01:00:04;;;;;;;24.88;7.03;;;;;;;-141.50;100.00;63355.56;4971612;28;20071;-77
2024/01/28 01:02:31;;;;;;;19.63;6.93;;;;;;;-141.50;100.00;63355.56;4964147;28;20413;-78
2024/01/28 01:04:57;;;;;;;21.58;6.60;;;;;;;-141.50;100.00;63355.56;4955874;28;20059;-78
2024/01/28 01:07:26;;;;;;;18.70;5.90;;;;;;;-141.50;100.00;63355.56;4982415;28;20067;-78
2024/01/28 01:09:52;;;;;;;12.48;4.63;;;;;;;-141.50;100.00;63355.56;4967760;28;20058;-78
2024/01/28 01:12:20;;;;;;;17.88;5.07;;;;;;;-141.50;100.00;63355.56;4966262;28;20663;-77
2024/01/28 01:14:47;;;;;;;11.30;4.90;;;;;;;-141.50;100.00;63355.56;4953877;28;20406;-80
2024/01/28 01:17:13;;;;;;;20.90;6.53;;;;;;;-141.50;100.00;63355.56;4966575;28;20054;-78
2024/01/28 01:19:40;;;;;;;19.63;5.45;;;;;;;-141.50;100.00;63355.56;4950020;28;20623;-79
2024/01/28 01:22:07;;;;;;;13.52;5.13;;;;;;;-141.50;100.00;63355.56;4996662;28;20075;-79
2024/01/28 01:24:35;;;;;;;14.63;5.07;;;;;;;-141.50;100.00;63355.56;4973942;28;20172;-79
2024/01/28 01:27:02;;;;;;;20.90;6.18;;;;;;;-141.50;100.00;63355.56;5033682;28;20053;-78
2024/01/28 01:29:29;;;;;;;16.52;5.72;;;;;;;-141.50;100.00;63355.56;4992212;28;20053;-79
2024/01/28 01:31:56;;;;;;;16.00;5.32;;;;;;;-141.50;100.00;63355.56;5034980;28;20079;-79
2024/01/28 01:34:23;;;;;;;17.17;5.43;;;;;;;-141.50;100.00;63355.56;4952036;28;20048;-78
2024/01/28 01:36:50;;;;;;;15.55;5.35;;;;;;;-141.50;100.00;63355.56;4949921;28;20071;-79
2024/01/28 01:39:17;;;;;;;20.35;6.63;;;;;;;-141.50;100.00;63355.56;4951924;28;20089;-79
2024/01/28 01:41:44;;;;;;;22.73;6.25;;;;;;;-141.50;100.00;63355.56;4953655;28;20063;-78
2024/01/28 01:44:11;;;;;;;21.58;5.82;;;;;;;-141.50;100.00;63355.56;4952419;28;20059;-79
2024/01/28 01:46:40;;;;;;;30.35;6.80;;;;;;;-141.50;100.00;63355.56;4954123;28;20039;-79
2024/01/28 01:49:08;;;;;;;19.60;6.43;;;;;;;-141.50;100.00;63355.56;4952767;28;20056;-79
2024/01/28 01:51:35;;;;;;;26.05;7.03;;;;;;;-141.50;100.00;63355.56;4952261;28;20047;-78
2024/01/28 01:54:02;;;;;;;18.05;5.72;;;;;;;-141.50;100.00;63355.56;4967742;28;20078;-79
2024/01/28 01:56:33;;;;;;;24.83;6.30;;;;;;;-141.50;100.00;63355.56;4963889;28;20420;-79
2024/01/28 01:59:00;;;;;;;18.83;5.97;;;;;;;-141.50;100.00;63355.56;4965332;28;20059;-78
2024/01/28 02:01:29;;;;;;;19.50;5.90;;;;;;;-141.50;100.00;63355.56;4961415;28;20047;-79
2024/01/28 02:03:57;;;;;;;15.13;5.28;;;;;;;-141.50;100.00;63355.56;4961147;28;20053;-79
2024/01/28 02:06:26;;;;;;;18.95;5.47;;;;;;;-141.50;100.00;63355.56;4970271;28;20058;-78
2024/01/28 02:08:54;;;;;;;17.27;5.07;;;;;;;-141.50;100.00;63355.56;5015368;28;20041;-78
2024/01/28 02:11:22;;;;;;;21.42;6.30;;;;;;;-141.50;100.00;63355.56;4996437;28;20066;-78
2024/01/28 02:13:49;;;;;;;20.55;6.00;;;;;;;-141.50;100.00;63355.56;4971776;28;20043;-79
2024/01/28 02:16:16;;;;;;;20.17;6.25;;;;;;;-141.50;100.00;63355.56;4987454;28;20132;-78
2024/01/28 02:18:43;;;;;;;23.25;6.10;;;;;;;-141.50;100.00;63355.56;4989903;28;20047;-78
2024/01/28 02:21:10;;;;;;;21.83;5.10;;;;;;;-141.50;100.00;63355.56;4979970;28;20064;-78
2024/01/28 02:23:39;;;;;;;18.23;4.53;;;;;;;-141.50;100.00;63355.56;4959990;28;20043;-78
2024/01/28 02:26:06;;;;;;;16.38;4.78;;;;;;;-141.50;100.00;63355.56;4957214;28;20055;-78
2024/01/28 02:28:33;;;;;;;16.80;5.30;;;;;;;-141.50;100.00;63355.56;4957523;28;20054;-78
2024/01/28 02:31:00;;;;;;;18.25;5.63;;;;;;;-141.50;100.00;63355.56;4956912;28;20064;-79
2024/01/28 02:33:27;;;;;;;19.27;5.22;;;;;;;-141.50;100.00;63355.56;4962177;28;20043;-78
2024/01/28 02:35:54;;;;;;;18.52;4.80;;;;;;;-141.50;100.00;63355.56;4978022;28;20098;-78
2024/01/28 02:38:21;;;;;;;17.45;4.80;;;;;;;-141.50;100.00;63355.56;4960901;28;20055;-78
2024/01/28 02:40:49;;;;;;;11.95;4.68;;;;;;;-141.50;100.00;63355.56;4976795;28;20097;-78
2024/01/28 02:43:16;;;;;;;15.73;4.15;;;;;;;-141.50;100.00;63355.56;5017520;28;20060;-78
2024/01/28 02:45:42;;;;;;;12.60;4.28;;;;;;;-141.50;100.00;63355.56;5004345;28;20068;-77
2024/01/28 02:48:09;;;;;;;12.48;4.60;;;;;;;-141.50;100.00;63355.56;4970421;28;20648;-78
2024/01/28 02:50:36;;;;;;;18.17;5.00;;;;;;;-141.50;100.00;63355.56;4954330;28;20050;-78
2024/01/28 02:53:03;;;;;;;14.02;4.63;;;;;;;-141.50;100.00;63355.56;4960439;28;20653;-77
2024/01/28 02:55:30;;;;;;;12.82;4.20;;;;;;;-141.50;100.00;63355.56;4956983;28;20069;-78
2024/01/28 02:57:57;;;;;;;14.45;4.45;;;;;;;-141.50;100.00;63355.56;5032867;28;20152;-78
2024/01/28 03:00:24;;;;;;;13.88;4.82;;;;;;;-141.50;100.00;63355.56;5057008;28;20059;-78
2024/01/28 03:02:51;;;;;;;17.08;4.28;;;;;;;-141.50;100.00;63355.56;4963440;28;20597;-78
2024/01/28 03:05:18;;;;;;;10.77;4.03;;;;;;;-141.50;100.00;63355.56;4961549;28;20119;-78
2024/01/28 03:07:45;;;;;;;10.48;3.75;;;;;;;-141.50;100.00;63355.56;4975738;28;20126;-77
2024/01/28 03:10:12;;;;;;;13.85;4.28;;;;;;;-141.50;100.00;63355.56;4960818;28;20531;-79
2024/01/28 03:12:39;;;;;;;19.63;4.25;;;;;;;-141.50;100.00;63355.56;4951998;28;20128;-77
2024/01/28 03:15:07;;;;;;;13.70;4.00;;;;;;;-141.50;100.00;63355.56;4960093;28;20579;-77
2024/01/28 03:17:33;;;;;;;14.38;4.28;;;;;;;-141.50;100.00;63355.56;4958447;28;20046;-77
2024/01/28 03:20:00;;;;;;;17.45;4.32;;;;;;;-141.50;100.00;63355.56;4982189;28;20053;-77
2024/01/28 03:22:27;;;;;;;17.40;4.28;;;;;;;-141.50;100.00;63355.56;4982732;28;20055;-78
2024/01/28 03:24:54;;;;;;;17.15;4.07;;;;;;;-141.50;100.00;63355.56;4956197;28;20053;-77
2024/01/28 03:27:21;;;;;;;15.95;4.05;;;;;;;-141.50;100.00;63355.56;4953363;28;20124;-77
2024/01/28 03:29:48;;;;;;;8.40;3.55;;;;;;;-141.50;100.00;63355.56;4979284;28;20039;-78
2024/01/28 03:32:15;;;;;;;12.73;4.20;;;;;;;-141.50;100.00;63355.56;4965014;28;20527;-78
2024/01/28 03:34:42;;;;;;;15.15;4.15;;;;;;;-141.50;100.00;63355.56;4962641;28;20043;-78
2024/01/28 03:37:09;;;;;;;22.75;4.43;;;;;;;-141.50;100.00;63355.56;4955336;28;20062;-78
2024/01/28 03:39:36;;;;;;;18.23;4.43;;;;;;;-141.50;100.00;63355.56;4993159;28;20131;-78
2024/01/28 03:42:03;;;;;;;18.23;4.15;;;;;;;-141.50;100.00;63355.56;4982756;28;20104;-78
2024/01/28 03:44:30;;;;;;;12.20;3.80;;;;;;;-141.50;100.00;63355.56;4972873;28;20043;-78
2024/01/28 03:47:00;;;;;;;17.00;4.40;;;;;;;-141.50;100.00;63355.56;4971234;28;20046;-79
2024/01/28 03:49:27;;;;;;;12.77;3.80;;;;;;;-141.50;100.00;63355.56;5027146;28;20078;-78
2024/01/28 03:51:54;;;;;;;11.90;2.97;;;;;;;-141.50;100.00;63355.56;4967527;28;20112;-78
2024/01/28 03:54:21;;;;;;;18.63;4.18;;;;;;;-141.50;100.00;63355.56;5000677;28;20056;-78
2024/01/28 03:56:48;;;;;;;15.60;4.25;;;;;;;-141.50;100.00;63355.56;4981029;28;20047;-79
2024/01/28 03:59:14;;;;;;;13.23;3.47;;;;;;;-141.50;100.00;63355.56;4956660;28;20058;-78
2024/01/28 04:01:41;;;;;;;12.93;3.78;;;;;;;-141.50;100.00;63355.56;4972906;28;20515;-77
2024/01/28 04:04:10;;;;;;;15.32;3.60;;;;;;;-141.50;100.00;63355.56;4982260;28;20061;-78
2024/01/28 04:06:43;;;;;;;13.73;3.35;;;;;;;-141.50;100.00;63355.56;4972113;28;20059;-77
2024/01/28 04:09:11;;;;;;;17.10;3.85;;;;;;;-141.50;100.00;63355.56;4981491;28;20070;-78
2024/01/28 04:11:38;;;;;;;12.68;3.60;;;;;;;-141.50;100.00;63355.56;4986801;28;20101;-77
2024/01/28 04:14:04;;;;;;;12.38;3.67;;;;;;;-141.50;100.00;63355.56;4978145;28;20046;-77
2024/01/28 04:16:34;;;;;;;12.07;3.92;;;;;;;-141.50;100.00;63355.56;4967207;28;20054;-79
2024/01/28 04:19:01;;;;;;;9.57;3.40;;;;;;;-141.50;100.00;63355.56;4965638;28;20109;-77
2024/01/28 04:21:29;;;;;;;11.93;4.30;;;;;;;-141.50;100.00;63355.56;4952085;28;20053;-78
2024/01/28 04:23:56;;;;;;;9.82;3.22;;;;;;;-141.50;100.00;63355.56;4969855;28;20240;-78
2024/01/28 04:26:24;;;;;;;12.90;3.45;;;;;;;-141.50;100.00;63355.56;4965052;28;20058;-79
2024/01/28 04:28:50;;;;;;;10.77;3.53;;;;;;;-141.50;100.00;63355.56;4956690;28;20048;-79
2024/01/28 04:31:17;;;;;;;10.27;3.72;;;;;;;-141.50;100.00;63355.56;4967941;28;20075;-79
2024/01/28 04:33:44;;;;;;;9.07;3.42;;;;;;;-141.50;100.00;63355.56;4973476;28;20053;-77
2024/01/28 04:36:11;;;;;;;13.68;3.40;;;;;;;-141.50;100.00;63355.56;4985520;28;20055;-78
2024/01/28 04:38:38;;;;;;;12.73;4.15;;;;;;;-141.50;100.00;63355.56;4978734;28;20110;-77
2024/01/28 04:41:07;;;;;;;10.00;3.47;;;;;;;-141.50;100.00;63355.56;4986377;28;20133;-77
2024/01/28 04:43:38;;;;;;;8.38;3.20;;;;;;;-141.50;100.00;63355.56;4991003;28;20044;-78
2024/01/28 04:46:05;;;;;;;13.13;3.90;;;;;;;-141.50;100.00;63355.56;4969030;28;20047;-77
2024/01/28 04:48:32;;;;;;;17.13;3.42;;;;;;;-141.50;100.00;63355.56;4990008;28;20064;-77
2024/01/28 04:50:59;;;;;;;18.10;3.88;;;;;;;-141.50;100.00;63355.56;4976758;28;20031;-76
2024/01/28 04:53:26;;;;;;;9.85;3.92;;;;;;;-141.50;100.00;63355.56;4952060;28;20051;-77
2024/01/28 04:55:53;;;;;;;10.20;3.60;;;;;;;-141.50;100.00;63355.56;4951783;28;20069;-79
2024/01/28 04:58:20;;;;;;;12.90;3.95;;;;;;;-141.50;100.00;63355.56;4966484;28;20051;-78
2024/01/28 05:00:46;;;;;;;11.55;3.38;;;;;;;-141.50;100.00;63355.56;4968543;28;20456;-78
2024/01/28 05:03:13;;;;;;;10.05;3.05;;;;;;;-141.50;100.00;63355.56;4995022;28;20795;-78
2024/01/28 05:05:41;;;;;;;8.00;2.90;;;;;;;-141.50;100.00;63355.56;4953101;28;20077;-78
2024/01/28 05:08:09;;;;;;;12.65;3.30;;;;;;;-141.50;100.00;63355.56;5000578;28;20041;-77
2024/01/28 05:10:35;;;;;;;10.15;3.20;;;;;;;-141.50;100.00;63355.56;4950891;28;20051;-78
2024/01/28 05:13:02;;;;;;;11.15;3.88;;;;;;;-141.50;100.00;63355.56;4943686;28;20051;-78
2024/01/28 05:15:29;;;;;;;10.93;3.15;;;;;;;-141.50;100.00;63355.56;4968040;28;20035;-78
2024/01/28 05:17:56;;;;;;;8.63;3.72;;;;;;;-141.50;100.00;63355.56;4997766;28;20115;-78
2024/01/28 05:20:22;;;;;;;12.27;3.60;;;;;;;-141.50;100.00;63355.56;4955100;28;20046;-78
2024/01/28 05:22:51;;;;;;;11.90;3.75;;;;;;;-141.50;100.00;63355.56;4951300;28;20051;-78
2024/01/28 05:25:18;;;;;;;14.35;3.53;;;;;;;-141.50;100.00;63355.56;5006586;28;20115;-77
2024/01/28 05:27:44;;;;;;;15.23;3.92;;;;;;;-141.50;100.00;63355.56;4963004;28;20164;-78
2024/01/28 05:30:11;;;;;;;10.65;3.55;;;;;;;-141.50;100.00;63355.56;4982534;28;20067;-78
2024/01/28 05:32:39;;;;;;;12.30;3.35;;;;;;;-141.50;100.00;63355.56;4980410;28;20051;-78
2024/01/28 05:35:07;;;;;;;10.02;3.47;;;;;;;-141.50;100.00;63355.56;4965407;28;20051;-78
2024/01/28 05:37:36;;;;;;;15.73;3.28;;;;;;;-141.50;100.00;63355.56;4975052;28;20058;-78
2024/01/28 05:40:04;;;;;;;15.18;3.47;;;;;;;-141.50;100.00;63355.56;4959212;28;20051;-77
2024/01/28 05:42:31;;;;;;;15.88;3.53;;;;;;;-141.50;100.00;63355.56;4967428;28;20082;-77
2024/01/28 05:44:57;;;;;;;14.50;3.92;;;;;;;-141.50;100.00;63355.56;4968971;28;20540;-78
2024/01/28 05:47:24;;;;;;;20.98;5.65;;;;;;;-141.50;100.00;63355.56;4963103;28;20063;-77
2024/01/28 05:49:51;;;;;;;17.08;4.63;;;;;;;-141.50;100.00;63355.56;4969350;28;20042;-78
2024/01/28 05:52:18;;;;;;;17.20;4.18;;;;;;;-141.50;100.00;63355.56;4961315;28;20121;-79
2024/01/28 05:54:44;;;;;;;15.50;4.47;;;;;;;-141.50;100.00;63355.56;4967082;28;20443;-78
2024/01/28 05:57:12;;;;;;;18.77;4.68;;;;;;;-141.50;100.00;63355.56;4971040;28;20049;-78
2024/01/28 05:59:39;;;;;;;13.02;3.97;;;;;;;-141.50;100.00;63355.56;4989834;28;20051;-78
2024/01/28 06:02:06;;;;;;;14.48;4.50;;;;;;;-141.50;100.00;63355.56;4957034;28;20058;-78
2024/01/28 06:04:32;;;;;;;13.23;4.25;;;;;;;-141.50;100.00;63355.56;4962451;28;20169;-79
2024/01/28 06:07:02;;;;;;;16.00;3.97;;;;;;;-141.50;100.00;63355.56;4970685;28;20050;-79
2024/01/28 06:09:29;;;;;;;14.70;4.07;;;;;;;-141.50;100.00;63355.56;4983712;28;20073;-78
2024/01/28 06:11:56;;;;;;;17.77;4.97;;;;;;;-141.50;100.00;63355.56;4945199;28;20073;-79
2024/01/28 06:14:24;;;;;;;13.55;4.72;;;;;;;-141.50;100.00;63355.56;4950854;28;20056;-79
2024/01/28 06:16:51;;;;;;;17.98;5.07;;;;;;;-141.50;100.00;63355.56;4967958;28;20050;-78
2024/01/28 06:19:17;;;;;;;15.15;5.35;;;;;;;-141.50;100.00;63355.56;4963157;28;20081;-78
2024/01/28 06:21:44;;;;;;;18.88;5.30;;;;;;;-141.50;100.00;63355.56;4967816;28;20470;-77
2024/01/28 06:24:11;;;;;;;16.90;4.55;;;;;;;-141.50;100.00;63355.56;4973191;28;20120;-78
2024/01/28 06:26:39;;;;;;;12.30;4.40;;;;;;;-141.50;100.00;63355.56;4987728;28;20043;-78
2024/01/28 06:29:06;;;;;;;16.83;3.97;;;;;;;-141.50;100.00;63355.56;5005224;28;20513;-77
2024/01/28 06:31:33;;;;;;;12.73;3.78;;;;;;;-141.50;100.00;63355.56;4968194;28;20047;-77
2024/01/28 06:33:59;;;;;;;14.70;3.60;;;;;;;-141.50;100.00;63355.56;4996591;28;20050;-78
2024/01/28 06:36:26;;;;;;;14.82;4.22;;;;;;;-141.50;100.00;63355.56;4967539;28;20045;-78
2024/01/28 06:38:54;;;;;;;19.60;4.75;;;;;;;-141.50;100.00;63355.56;4981483;28;20043;-79
2024/01/28 06:41:21;;;;;;;12.98;4.05;;;;;;;-141.50;100.00;63355.56;4964464;28;20054;-78
2024/01/28 06:43:48;;;;;;;13.45;4.15;;;;;;;-141.50;100.00;63355.56;4948169;28;20055;-77
2024/01/28 06:46:16;;;;;;;12.80;3.83;;;;;;;-141.50;100.00;63355.56;4950036;28;20109;-79
2024/01/28 06:48:43;;;;;;;11.02;3.50;;;;;;;-141.50;100.00;63355.56;4962702;28;20053;-79
2024/01/28 06:51:10;;;;;;;8.77;3.55;;;;;;;-141.50;100.00;63355.56;4976139;28;20541;-78
2024/01/28 06:53:37;;;;;;;20.00;4.53;;;;;;;-141.50;100.00;63355.56;4968080;28;20055;-77
2024/01/28 06:56:04;;;;;;;17.55;4.57;;;;;;;-141.50;100.00;63355.56;4963653;28;20063;-78
2024/01/28 06:58:31;;;;;;;10.57;4.53;;;;;;;-141.50;100.00;63355.56;4990010;28;20051;-79
2024/01/28 07:00:57;;;;;;;16.08;3.80;;;;;;;-141.50;100.00;63355.56;5012063;28;20437;-80
2024/01/28 07:03:25;;;;;;;10.93;3.03;;;;;;;-141.50;100.00;63355.56;4954580;28;20059;-77
2024/01/28 07:05:52;;;;;;;16.40;3.25;;;;;;;-141.50;100.00;63355.56;4983115;28;20618;-78
2024/01/28 07:08:20;;;;;;;11.18;3.38;;;;;;;-141.50;100.00;63355.56;4961092;28;20055;-78
2024/01/28 07:10:46;;;;;;;9.23;3.40;;;;;;;-141.50;100.00;63355.56;4962701;28;20498;-78
2024/01/28 07:13:13;;;;;;;10.35;3.20;;;;;;;-141.50;100.00;63355.56;4967782;28;20529;-79
2024/01/28 07:15:40;;;;;;;16.67;4.03;;;;;;;-141.50;100.00;63355.56;4970762;28;20043;-79
2024/01/28 07:18:07;;;;;;;13.77;3.90;;;;;;;-141.50;100.00;63355.56;5004341;28;20133;-78
2024/01/28 07:20:34;;;;;;;12.63;4.13;;;;;;;-141.50;100.00;63355.56;4968996;28;20042;-79
2024/01/28 07:23:00;;;;;;;12.00;4.35;;;;;;;-141.50;100.00;63355.56;4957551;28;20074;-79
2024/01/28 07:25:27;;;;;;;14.32;3.72;;;;;;;-141.50;100.00;63355.56;4952430;28;20043;-79
2024/01/28 07:27:54;;;;;;;13.40;4.00;;;;;;;-141.50;100.00;63355.56;4959893;28;20577;-78
2024/01/28 07:30:21;;;;;;;16.38;4.07;;;;;;;-141.50;100.00;63355.56;4969502;28;20054;-77
2024/01/28 07:32:51;;;;;;;13.10;3.97;;;;;;;-141.50;100.00;63355.56;4964039;28;20533;-78
2024/01/28 07:35:20;;;;;;;13.80;4.43;;;;;;;-141.50;100.00;63355.56;4963189;28;20051;-78
2024/01/28 07:37:46;;;;;;;10.85;4.20;;;;;;;-141.50;100.00;63355.56;4960323;28;20051;-77
2024/01/28 07:40:13;;;;;;;15.80;3.70;;;;;;;-141.50;100.00;63355.56;4948876;28;20066;-77
2024/01/28 07:42:40;;;;;;;10.07;3.78;;;;;;;-141.50;100.00;63355.56;4962237;28;20055;-78
2024/01/28 07:45:09;;;;;;;10.77;4.03;;;;;;;-141.50;100.00;63355.56;4987224;28;20055;-78
2024/01/28 07:47:36;;;;;;;9.00;3.50;;;;;;;-141.50;100.00;63355.56;4968978;28;20058;-79
2024/01/28 07:50:06;;;;;;;12.00;4.32;;;;;;;-141.50;100.00;63355.56;4969170;28;20121;-78
2024/01/28 07:52:33;;;;;;;12.52;4.43;;;;;;;-141.50;100.00;63355.56;4980591;28;20047;-78
2024/01/28 07:55:00;;;;;;;12.88;4.47;;;;;;;-141.50;100.00;63355.56;4994401;28;20065;-78
2024/01/28 07:57:26;;;;;;;15.23;4.30;;;;;;;-141.50;100.00;63355.56;5015544;28;20056;-78
2024/01/28 07:59:54;;;;;;;15.02;5.20;;;;;;;-141.50;100.00;63355.56;5059670;28;20059;-77
2024/01/28 08:02:20;;;;;;;12.77;4.40;;;;;;;-141.50;100.00;63355.56;5024282;28;20410;-78
2024/01/28 08:04:47;;;;;;;11.38;3.97;;;;;;;-141.50;100.00;63355.56;4979367;28;20125;-78
2024/01/28 08:07:15;;;;;;;17.60;3.85;;;;;;;-141.50;100.00;63355.56;4972338;28;20051;-78
2024/01/28 08:09:44;;;;;;;11.40;3.95;;;;;;;-141.50;100.00;63355.56;5011208;28;20047;-78
2024/01/28 08:12:11;;;;;;;12.18;3.47;;;;;;;-141.50;100.00;63355.56;5026801;28;20050;-78
2024/01/28 08:14:38;;;;;;;11.30;3.67;;;;;;;-141.50;100.00;63355.56;4952099;28;20059;-78
2024/01/28 08:17:04;;;;;;;9.93;3.38;;;;;;;-141.50;100.00;63355.56;4992398;28;20527;-78
2024/01/28 08:19:31;;;;;;;16.02;3.65;;;;;;;-141.50;100.00;63355.56;4985319;28;20108;-78
2024/01/28 08:21:59;;;;;;;12.60;3.75;;;;;;;-141.50;100.00;63355.56;4959905;28;20051;-78
2024/01/28 08:24:26;;;;;;;13.25;3.63;;;;;;;-141.50;100.00;63355.56;4997266;28;20155;-78
2024/01/28 08:26:53;;;;;;;13.40;3.80;;;;;;;-141.50;100.00;63355.56;5029696;28;20136;-78
2024/01/28 08:29:19;;;;;;;11.48;3.08;;;;;;;-141.50;100.00;63355.56;4968925;28;20065;-77
2024/01/28 08:31:46;;;;;;;12.82;3.75;;;;;;;-141.50;100.00;63355.56;5000068;28;20250;-78
2024/01/28 08:34:13;;;;;;;11.65;3.42;;;;;;;-141.50;100.00;63355.56;4996097;28;20059;-78
2024/01/28 08:36:41;;;;;;;11.90;3.28;;;;;;;-141.50;100.00;63355.56;4998440;28;20051;-78
2024/01/28 08:39:09;;;;;;;9.65;3.58;;;;;;;-141.50;100.00;63355.56;4976404;28;20047;-78
2024/01/28 08:41:36;;;;;;;8.52;3.30;;;;;;;-141.50;100.00;63355.56;4953799;28;20061;-78
2024/01/28 08:44:07;;;;;;;5.63;2.38;;;;;;;-141.50;100.00;63355.56;4997351;28;20049;-79
2024/01/28 08:46:38;;;;;;;11.10;3.05;;;;;;;-141.50;100.00;63355.56;4961572;28;20066;-78
2024/01/28 08:49:04;;;;;;;12.70;2.85;;;;;;;-141.50;100.00;63355.56;4978549;28;20065;-78
2024/01/28 08:51:31;;;;;;;13.18;3.90;;;;;;;-141.50;100.00;63355.56;4991750;28;20062;-80
2024/01/28 08:53:58;;;;;;;17.02;4.80;;;;;;;-141.50;100.00;63355.56;4957448;28;20050;-80
2024/01/28 08:56:25;;;;;;;15.65;3.40;;;;;;;-141.50;100.00;63355.56;4957780;28;20753;-80
2024/01/28 08:58:51;;;;;;;8.27;2.63;;;;;;;-141.50;100.00;63355.56;4983190;28;20164;-79
2024/01/28 09:01:18;;;;;;;8.55;2.92;;;;;;;-141.50;100.00;63355.56;5002701;28;20039;-79
2024/01/28 09:03:45;;;;;;;11.75;2.55;;;;;;;-141.50;100.00;63355.56;5011946;28;20051;-79
2024/01/28 09:06:12;;;;;;;6.65;2.22;;;;;;;-141.50;100.00;63355.56;4958874;28;20047;-79
2024/01/28 09:08:38;;;;;;;8.95;2.38;;;;;;;-141.50;100.00;63355.56;4963919;28;20062;-80
2024/01/28 09:11:06;;;;;;;24.40;6.47;;;;;;;-141.50;100.00;63355.56;4987393;28;20059;-79
2024/01/28 09:13:33;;;;;;;16.25;5.25;;;;;;;-141.50;100.00;63355.56;4951517;28;20062;-79
2024/01/28 09:16:00;;;;;;;29.73;7.85;;;;;;;-141.50;100.00;63355.56;4952361;28;20082;-79
2024/01/28 09:18:27;;;;;;;42.20;11.90;;;;;;;-141.50;100.00;63355.56;4954289;28;20059;-79
2024/01/28 09:20:53;;;;;;;44.83;12.88;;;;;;;-141.50;100.00;63355.56;4955481;28;20043;-79
2024/01/28 09:23:20;;;;;;;36.00;11.25;;;;;;;-141.50;100.00;63355.56;4996840;28;20059;-79
2024/01/28 09:25:47;;;;;;;39.97;12.75;;;;;;;-141.50;100.00;63355.56;4987704;28;20103;-80
2024/01/28 09:28:13;;;;;;;47.67;12.38;;;;;;;-141.50;100.00;63355.56;4962845;28;20062;-80
2024/01/28 09:30:41;;;;;;;45.67;14.27;;;;;;;-141.50;100.00;63355.56;4977642;28;20842;-80
2024/01/28 09:33:10;;;;;;;36.25;10.55;;;;;;;-141.50;100.00;63355.56;4999105;28;20108;-77
2024/01/28 09:35:41;;;;;;;24.95;7.93;;;;;;;-141.50;100.00;63355.56;4975260;28;20059;-80
2024/01/28 09:38:08;;;;;;;32.92;10.15;;;;;;;-141.50;100.00;63355.56;4960677;28;20133;-80
2024/01/28 09:40:35;;;;;;;36.92;11.95;;;;;;;-141.50;100.00;63355.56;4997487;28;20054;-78
2024/01/28 09:43:19;;;;;;;31.45;11.18;;;;;;;-141.50;100.00;63355.56;4970355;28;20632;-78
2024/01/28 09:45:46;;;;;;;24.35;8.48;;;;;;;-141.50;100.00;63355.56;4957703;28;20061;-78
2024/01/28 09:48:14;;;;;;;13.50;4.90;;;;;;;-141.50;100.00;63355.56;4952000;28;20070;-78
2024/01/28 09:50:41;;;;;;;25.20;9.48;;;;;;;-141.50;100.00;63355.56;4950644;28;20418;-78
2024/01/28 09:53:10;;;;;;;22.52;7.60;;;;;;;-141.50;100.00;63355.56;4957318;28;20089;-78
2024/01/28 09:55:37;;;;;;;11.05;4.00;;;;;;;-141.50;100.00;63355.56;4988263;28;20146;-78
2024/01/28 09:58:03;;;;;;;7.75;2.40;;;;;;;-141.50;100.00;63355.56;4953100;28;20700;-77
2024/01/28 10:00:30;;;;;;;10.85;4.45;;;;;;;-141.50;100.00;63355.56;4964900;28;20112;-80
2024/01/28 10:02:57;;;;;;;11.02;4.38;;;;;;;-141.50;100.00;63355.56;4966468;28;20061;-79
2024/01/28 10:05:24;;;;;;;11.30;3.85;;;;;;;-141.50;100.00;63355.56;4986135;28;20112;-80
2024/01/28 10:08:01;;;;;;;5.93;2.50;;;;;;;-141.50;100.00;63355.56;4974534;28;20058;-79
2024/01/28 10:10:28;;;;;;;10.40;3.10;;;;;;;-141.50;100.00;63355.56;4996557;28;20043;-77
2024/01/28 10:12:57;;;;;;;9.23;2.88;;;;;;;-141.50;100.00;63355.56;5054037;28;20052;-78
2024/01/28 10:15:28;;;;;;;8.23;2.50;;;;;;;-141.50;100.00;63355.56;5034509;28;20115;-77
2024/01/28 10:17:57;;;;;;;5.97;2.30;;;;;;;-141.50;100.00;63355.56;4967441;28;20047;-80
2024/01/28 10:20:25;;;;;;;4.78;2.30;;;;;;;-141.50;100.00;63355.56;5014908;28;20053;-77
2024/01/28 10:22:53;;;;;;;9.13;2.97;;;;;;;-141.50;100.00;63355.56;5039385;28;20063;-80
2024/01/28 10:25:22;;;;;;;5.90;2.90;;;;;;;-141.50;100.00;63355.56;5003390;28;20052;-80
2024/01/28 10:27:49;;;;;;;5.68;2.58;;;;;;;-141.50;100.00;63355.56;4978929;28;20058;-79
2024/01/28 10:30:18;;;;;;;8.70;2.55;;;;;;;-141.50;100.00;63355.56;5044472;28;20052;-77
2024/01/28 10:32:46;;;;;;;9.50;2.88;;;;;;;-141.50;100.00;63355.56;5039631;28;20072;-78
2024/01/28 10:35:13;;;;;;;4.78;2.10;;;;;;;-141.50;100.00;63355.56;5038592;28;20075;-78
2024/01/28 10:37:41;;;;;;;5.13;2.17;;;;;;;-141.50;100.00;63355.56;4987429;28;20059;-78
2024/01/28 10:40:09;;;;;;;6.80;2.15;;;;;;;-141.50;100.00;63355.56;4958532;28;20516;-79
2024/01/28 10:42:38;;;;;;;5.13;2.15;;;;;;;-141.50;100.00;63355.56;4978944;28;20058;-79
2024/01/28 10:45:09;;;;;;;5.93;2.40;;;;;;;-141.50;100.00;63355.56;4961613;28;20141;-78
2024/01/28 10:47:40;;;;;;;4.22;1.83;;;;;;;-141.50;100.00;63355.56;5015514;28;20806;-79
2024/01/28 10:50:12;;;;;;;5.75;1.88;;;;;;;-141.50;100.00;63355.56;4990660;28;20216;-79
2024/01/28 10:52:39;;;;;;;3.38;1.52;;;;;;;-141.50;100.00;63355.56;5023162;28;20043;-78
2024/01/28 10:55:08;;;;;;;4.43;1.52;;;;;;;-141.50;100.00;63355.56;5017885;28;20076;-77
2024/01/28 10:57:39;;;;;;;4.45;1.80;;;;;;;-141.50;100.00;63355.56;5044363;28;20049;-78
2024/01/28 11:00:10;;;;;;;3.58;1.48;;;;;;;-141.50;100.00;63355.56;5006539;28;20156;-78
2024/01/28 11:02:41;;;;;;;3.92;1.58;;;;;;;-141.50;100.00;63355.56;4982527;28;20051;-78